sensor_id;sensor_type;location;lat;lon;timestamp;temperature;humidity
28959;DHT22;16066;0.000;0.000;2023-04-03T00:01:33;18.40;46.00
28959;DHT22;16066;0.000;0.000;2023-04-03T00:04:00;18.40;46.10
28959;DHT22;16066;0.000;0.000;2023-04-03T00:06:25;18.30;46.00
28959;DHT22;16066;0.000;0.000;2023-04-03T00:08:51;18.30;45.90
28959;DHT22;16066;0.000;0.000;2023-04-03T00:11:18;18.30;45.80
28959;DHT22;16066;0.000;0.000;2023-04-03T00:13:44;18.30;45.60
28959;DHT22;16066;0.000;0.000;2023-04-03T00:16:11;18.30;45.60
28959;DHT22;16066;0.000;0.000;2023-04-03T00:18:37;18.30;45.60
28959;DHT22;16066;0.000;0.000;2023-04-03T00:21:04;18.30;45.60
28959;DHT22;16066;0.000;0.000;2023-04-03T00:23:30;18.30;45.50
28959;DHT22;16066;0.000;0.000;2023-04-03T00:25:56;18.30;45.40
28959;DHT22;16066;0.000;0.000;2023-04-03T00:28:22;18.30;45.40
28959;DHT22;16066;0.000;0.000;2023-04-03T00:30:51;18.30;45.40
28959;DHT22;16066;0.000;0.000;2023-04-03T00:33:17;18.30;45.40
28959;DHT22;16066;0.000;0.000;2023-04-03T00:35:42;18.30;45.30
28959;DHT22;16066;0.000;0.000;2023-04-03T00:38:08;18.30;45.30
28959;DHT22;16066;0.000;0.000;2023-04-03T00:40:36;18.30;45.40
28959;DHT22;16066;0.000;0.000;2023-04-03T00:43:10;18.30;45.30
28959;DHT22;16066;0.000;0.000;2023-04-03T00:45:42;18.30;45.40
28959;DHT22;16066;0.000;0.000;2023-04-03T00:48:11;18.20;45.20
28959;DHT22;16066;0.000;0.000;2023-04-03T00:50:41;18.20;45.20
28959;DHT22;16066;0.000;0.000;2023-04-03T00:53:11;18.20;45.20
28959;DHT22;16066;0.000;0.000;2023-04-03T00:55:38;18.20;45.20
28959;DHT22;16066;0.000;0.000;2023-04-03T00:58:04;18.20;45.20
28959;DHT22;16066;0.000;0.000;2023-04-03T01:00:32;18.20;45.20
28959;DHT22;16066;0.000;0.000;2023-04-03T01:02:57;18.20;45.20
28959;DHT22;16066;0.000;0.000;2023-04-03T01:05:23;18.20;45.20
28959;DHT22;16066;0.000;0.000;2023-04-03T01:07:49;18.20;45.20
28959;DHT22;16066;0.000;0.000;2023-04-03T01:10:16;18.20;45.20
28959;DHT22;16066;0.000;0.000;2023-04-03T01:12:44;18.20;45.20
28959;DHT22;16066;0.000;0.000;2023-04-03T01:15:25;18.20;45.20
28959;DHT22;16066;0.000;0.000;2023-04-03T01:17:58;18.20;45.20
28959;DHT22;16066;0.000;0.000;2023-04-03T01:25:45;18.20;45.20
28959;DHT22;16066;0.000;0.000;2023-04-03T01:28:17;18.20;45.20
28959;DHT22;16066;0.000;0.000;2023-04-03T01:30:55;18.10;45.00
28959;DHT22;16066;0.000;0.000;2023-04-03T01:33:22;18.10;45.20
28959;DHT22;16066;0.000;0.000;2023-04-03T01:35:47;18.10;45.20
28959;DHT22;16066;0.000;0.000;2023-04-03T01:38:13;18.10;45.20
28959;DHT22;16066;0.000;0.000;2023-04-03T01:40:39;18.10;45.20
28959;DHT22;16066;0.000;0.000;2023-04-03T01:43:05;18.10;45.10
28959;DHT22;16066;0.000;0.000;2023-04-03T01:45:30;18.10;45.10
28959;DHT22;16066;0.000;0.000;2023-04-03T01:47:56;18.10;45.20
28959;DHT22;16066;0.000;0.000;2023-04-03T01:50:21;18.10;45.20
28959;DHT22;16066;0.000;0.000;2023-04-03T01:52:47;18.10;45.10
28959;DHT22;16066;0.000;0.000;2023-04-03T01:55:12;18.10;45.20
28959;DHT22;16066;0.000;0.000;2023-04-03T01:57:38;18.10;45.20
28959;DHT22;16066;0.000;0.000;2023-04-03T02:00:04;18.10;45.20
28959;DHT22;16066;0.000;0.000;2023-04-03T02:02:30;18.10;45.20
28959;DHT22;16066;0.000;0.000;2023-04-03T02:04:55;18.10;45.10
28959;DHT22;16066;0.000;0.000;2023-04-03T02:07:21;18.10;45.10
28959;DHT22;16066;0.000;0.000;2023-04-03T02:09:47;18.10;45.00
28959;DHT22;16066;0.000;0.000;2023-04-03T02:12:12;18.10;45.00
28959;DHT22;16066;0.000;0.000;2023-04-03T02:14:38;18.10;45.10
28959;DHT22;16066;0.000;0.000;2023-04-03T02:17:03;18.00;45.00
28959;DHT22;16066;0.000;0.000;2023-04-03T02:19:34;18.00;45.00
28959;DHT22;16066;0.000;0.000;2023-04-03T02:22:01;18.00;44.90
28959;DHT22;16066;0.000;0.000;2023-04-03T02:24:27;18.00;44.90
28959;DHT22;16066;0.000;0.000;2023-04-03T02:26:53;18.00;45.00
28959;DHT22;16066;0.000;0.000;2023-04-03T02:29:18;18.00;45.00
28959;DHT22;16066;0.000;0.000;2023-04-03T02:31:44;18.00;45.00
28959;DHT22;16066;0.000;0.000;2023-04-03T02:34:10;18.00;45.00
28959;DHT22;16066;0.000;0.000;2023-04-03T02:36:36;18.00;45.00
28959;DHT22;16066;0.000;0.000;2023-04-03T02:39:02;18.00;45.00
28959;DHT22;16066;0.000;0.000;2023-04-03T02:41:28;18.00;45.00
28959;DHT22;16066;0.000;0.000;2023-04-03T02:44:00;18.00;44.90
28959;DHT22;16066;0.000;0.000;2023-04-03T02:46:26;18.00;44.90
28959;DHT22;16066;0.000;0.000;2023-04-03T02:48:51;18.00;45.00
28959;DHT22;16066;0.000;0.000;2023-04-03T02:51:17;18.00;45.60
28959;DHT22;16066;0.000;0.000;2023-04-03T02:53:43;18.00;45.00
28959;DHT22;16066;0.000;0.000;2023-04-03T02:56:08;18.00;45.00
28959;DHT22;16066;0.000;0.000;2023-04-03T02:58:34;18.00;45.00
28959;DHT22;16066;0.000;0.000;2023-04-03T03:00:59;18.00;45.00
28959;DHT22;16066;0.000;0.000;2023-04-03T03:03:25;18.00;44.90
28959;DHT22;16066;0.000;0.000;2023-04-03T03:06:01;17.90;44.90
28959;DHT22;16066;0.000;0.000;2023-04-03T03:08:26;18.00;44.90
28959;DHT22;16066;0.000;0.000;2023-04-03T03:10:52;17.90;44.80
28959;DHT22;16066;0.000;0.000;2023-04-03T03:13:17;18.00;44.90
28959;DHT22;16066;0.000;0.000;2023-04-03T03:15:43;18.00;44.90
28959;DHT22;16066;0.000;0.000;2023-04-03T03:18:08;17.90;44.80
28959;DHT22;16066;0.000;0.000;2023-04-03T03:20:34;17.90;44.80
28959;DHT22;16066;0.000;0.000;2023-04-03T03:22:59;17.90;44.80
28959;DHT22;16066;0.000;0.000;2023-04-03T03:25:25;17.90;44.80
28959;DHT22;16066;0.000;0.000;2023-04-03T03:27:50;17.90;44.70
28959;DHT22;16066;0.000;0.000;2023-04-03T03:30:16;17.90;44.80
28959;DHT22;16066;0.000;0.000;2023-04-03T03:32:41;17.90;44.80
28959;DHT22;16066;0.000;0.000;2023-04-03T03:35:07;17.90;44.80
28959;DHT22;16066;0.000;0.000;2023-04-03T03:37:33;17.90;44.70
28959;DHT22;16066;0.000;0.000;2023-04-03T03:39:58;17.90;44.80
28959;DHT22;16066;0.000;0.000;2023-04-03T03:42:24;17.90;44.80
28959;DHT22;16066;0.000;0.000;2023-04-03T03:44:49;17.90;44.80
28959;DHT22;16066;0.000;0.000;2023-04-03T03:47:15;17.90;44.70
28959;DHT22;16066;0.000;0.000;2023-04-03T03:49:40;17.90;44.80
28959;DHT22;16066;0.000;0.000;2023-04-03T03:52:06;17.90;44.80
28959;DHT22;16066;0.000;0.000;2023-04-03T03:54:31;17.90;44.80
28959;DHT22;16066;0.000;0.000;2023-04-03T03:56:57;17.90;44.80
28959;DHT22;16066;0.000;0.000;2023-04-03T03:59:22;17.90;44.90
28959;DHT22;16066;0.000;0.000;2023-04-03T04:01:48;17.90;44.90
28959;DHT22;16066;0.000;0.000;2023-04-03T04:04:13;17.80;44.90
28959;DHT22;16066;0.000;0.000;2023-04-03T04:06:39;17.80;44.90
28959;DHT22;16066;0.000;0.000;2023-04-03T04:09:05;17.80;45.00
28959;DHT22;16066;0.000;0.000;2023-04-03T04:11:31;17.80;45.00
28959;DHT22;16066;0.000;0.000;2023-04-03T04:13:58;17.80;45.00
28959;DHT22;16066;0.000;0.000;2023-04-03T04:16:24;17.80;45.00
28959;DHT22;16066;0.000;0.000;2023-04-03T04:18:49;17.80;45.00
28959;DHT22;16066;0.000;0.000;2023-04-03T04:21:15;17.80;44.80
28959;DHT22;16066;0.000;0.000;2023-04-03T04:23:40;17.80;45.00
28959;DHT22;16066;0.000;0.000;2023-04-03T04:26:06;17.80;45.00
28959;DHT22;16066;0.000;0.000;2023-04-03T04:28:31;17.80;45.00
28959;DHT22;16066;0.000;0.000;2023-04-03T04:30:56;17.80;45.00
28959;DHT22;16066;0.000;0.000;2023-04-03T04:33:22;17.80;45.00
28959;DHT22;16066;0.000;0.000;2023-04-03T04:35:48;17.80;45.00
28959;DHT22;16066;0.000;0.000;2023-04-03T04:38:13;17.80;45.00
28959;DHT22;16066;0.000;0.000;2023-04-03T04:40:39;17.80;45.00
28959;DHT22;16066;0.000;0.000;2023-04-03T04:43:05;17.80;44.80
28959;DHT22;16066;0.000;0.000;2023-04-03T04:45:31;17.80;45.00
28959;DHT22;16066;0.000;0.000;2023-04-03T04:47:56;17.80;45.00
28959;DHT22;16066;0.000;0.000;2023-04-03T04:50:22;17.80;45.00
28959;DHT22;16066;0.000;0.000;2023-04-03T04:52:48;17.80;44.90
28959;DHT22;16066;0.000;0.000;2023-04-03T04:55:13;17.80;45.00
28959;DHT22;16066;0.000;0.000;2023-04-03T04:57:39;17.80;45.00
28959;DHT22;16066;0.000;0.000;2023-04-03T05:00:05;17.80;45.00
28959;DHT22;16066;0.000;0.000;2023-04-03T05:02:31;17.80;44.90
28959;DHT22;16066;0.000;0.000;2023-04-03T05:04:56;17.70;44.90
28959;DHT22;16066;0.000;0.000;2023-04-03T05:07:22;17.70;44.90
28959;DHT22;16066;0.000;0.000;2023-04-03T05:09:48;17.70;44.90
28959;DHT22;16066;0.000;0.000;2023-04-03T05:12:13;17.70;44.80
28959;DHT22;16066;0.000;0.000;2023-04-03T05:14:39;17.70;44.80
28959;DHT22;16066;0.000;0.000;2023-04-03T05:17:04;17.70;44.90
28959;DHT22;16066;0.000;0.000;2023-04-03T05:19:30;17.70;44.90
28959;DHT22;16066;0.000;0.000;2023-04-03T05:21:55;17.70;44.80
28959;DHT22;16066;0.000;0.000;2023-04-03T05:24:21;17.70;44.90
28959;DHT22;16066;0.000;0.000;2023-04-03T05:26:46;17.70;45.30
28959;DHT22;16066;0.000;0.000;2023-04-03T05:29:12;17.80;45.50
28959;DHT22;16066;0.000;0.000;2023-04-03T05:31:37;17.80;45.40
28959;DHT22;16066;0.000;0.000;2023-04-03T05:34:03;17.80;45.30
28959;DHT22;16066;0.000;0.000;2023-04-03T05:36:29;17.80;45.10
28959;DHT22;16066;0.000;0.000;2023-04-03T05:38:54;17.80;45.50
28959;DHT22;16066;0.000;0.000;2023-04-03T05:41:22;17.90;45.80
28959;DHT22;16066;0.000;0.000;2023-04-03T05:43:47;17.90;45.70
28959;DHT22;16066;0.000;0.000;2023-04-03T05:46:15;18.00;45.60
28959;DHT22;16066;0.000;0.000;2023-04-03T05:48:42;18.10;45.30
28959;DHT22;16066;0.000;0.000;2023-04-03T05:51:15;18.20;45.00
28959;DHT22;16066;0.000;0.000;2023-04-03T05:53:41;18.30;44.90
28959;DHT22;16066;0.000;0.000;2023-04-03T05:56:07;18.30;44.90
28959;DHT22;16066;0.000;0.000;2023-04-03T05:58:33;18.40;44.90
28959;DHT22;16066;0.000;0.000;2023-04-03T06:00:58;18.50;44.90
28959;DHT22;16066;0.000;0.000;2023-04-03T06:03:24;18.60;44.90
28959;DHT22;16066;0.000;0.000;2023-04-03T06:05:50;18.60;44.70
28959;DHT22;16066;0.000;0.000;2023-04-03T06:08:16;18.80;44.80
28959;DHT22;16066;0.000;0.000;2023-04-03T06:10:41;18.90;45.20
28959;DHT22;16066;0.000;0.000;2023-04-03T06:13:07;19.00;44.40
28959;DHT22;16066;0.000;0.000;2023-04-03T06:15:33;19.10;44.40
28959;DHT22;16066;0.000;0.000;2023-04-03T06:17:59;19.20;44.30
28959;DHT22;16066;0.000;0.000;2023-04-03T06:20:25;19.20;45.10
28959;DHT22;16066;0.000;0.000;2023-04-03T06:22:51;19.30;44.00
28959;DHT22;16066;0.000;0.000;2023-04-03T06:25:16;19.40;44.00
28959;DHT22;16066;0.000;0.000;2023-04-03T06:27:44;19.50;44.00
28959;DHT22;16066;0.000;0.000;2023-04-03T06:30:10;19.50;43.90
28959;DHT22;16066;0.000;0.000;2023-04-03T06:32:36;19.60;43.80
28959;DHT22;16066;0.000;0.000;2023-04-03T06:35:03;19.70;43.80
28959;DHT22;16066;0.000;0.000;2023-04-03T06:37:29;19.70;43.70
28959;DHT22;16066;0.000;0.000;2023-04-03T06:39:55;19.80;43.80
28959;DHT22;16066;0.000;0.000;2023-04-03T06:42:21;19.80;43.60
28959;DHT22;16066;0.000;0.000;2023-04-03T06:44:47;19.90;43.60
28959;DHT22;16066;0.000;0.000;2023-04-03T06:47:14;19.90;43.50
28959;DHT22;16066;0.000;0.000;2023-04-03T06:49:40;20.00;43.60
28959;DHT22;16066;0.000;0.000;2023-04-03T06:52:06;20.00;43.60
28959;DHT22;16066;0.000;0.000;2023-04-03T06:54:32;20.00;43.40
28959;DHT22;16066;0.000;0.000;2023-04-03T06:56:58;20.10;43.20
28959;DHT22;16066;0.000;0.000;2023-04-03T06:59:24;20.10;43.10
28959;DHT22;16066;0.000;0.000;2023-04-03T07:01:49;20.10;43.00
28959;DHT22;16066;0.000;0.000;2023-04-03T07:04:15;20.10;42.90
28959;DHT22;16066;0.000;0.000;2023-04-03T07:06:41;20.10;42.90
28959;DHT22;16066;0.000;0.000;2023-04-03T07:09:09;20.10;42.20
28959;DHT22;16066;0.000;0.000;2023-04-03T07:11:35;20.10;42.20
28959;DHT22;16066;0.000;0.000;2023-04-03T07:14:01;20.20;42.20
28959;DHT22;16066;0.000;0.000;2023-04-03T07:16:27;20.20;42.30
28959;DHT22;16066;0.000;0.000;2023-04-03T07:18:52;20.20;42.30
28959;DHT22;16066;0.000;0.000;2023-04-03T07:21:18;20.20;42.30
28959;DHT22;16066;0.000;0.000;2023-04-03T07:23:43;20.30;42.40
28959;DHT22;16066;0.000;0.000;2023-04-03T07:26:09;20.30;42.30
28959;DHT22;16066;0.000;0.000;2023-04-03T07:28:34;20.30;42.10
28959;DHT22;16066;0.000;0.000;2023-04-03T07:31:05;20.30;42.00
28959;DHT22;16066;0.000;0.000;2023-04-03T07:33:32;20.30;42.00
28959;DHT22;16066;0.000;0.000;2023-04-03T07:35:58;20.30;41.80
28959;DHT22;16066;0.000;0.000;2023-04-03T07:38:24;20.30;41.90
28959;DHT22;16066;0.000;0.000;2023-04-03T07:40:50;20.30;42.00
28959;DHT22;16066;0.000;0.000;2023-04-03T07:43:19;20.30;41.90
28959;DHT22;16066;0.000;0.000;2023-04-03T07:45:45;20.30;41.90
28959;DHT22;16066;0.000;0.000;2023-04-03T07:48:12;20.30;41.80
28959;DHT22;16066;0.000;0.000;2023-04-03T07:50:41;20.30;41.80
28959;DHT22;16066;0.000;0.000;2023-04-03T07:53:07;20.30;41.80
28959;DHT22;16066;0.000;0.000;2023-04-03T07:55:33;20.30;41.70
28959;DHT22;16066;0.000;0.000;2023-04-03T07:57:59;20.30;41.70
28959;DHT22;16066;0.000;0.000;2023-04-03T08:00:24;20.30;41.70
28959;DHT22;16066;0.000;0.000;2023-04-03T08:02:50;20.30;41.80
28959;DHT22;16066;0.000;0.000;2023-04-03T08:05:20;20.30;41.70
28959;DHT22;16066;0.000;0.000;2023-04-03T08:07:46;20.30;41.60
28959;DHT22;16066;0.000;0.000;2023-04-03T08:10:12;20.30;41.60
28959;DHT22;16066;0.000;0.000;2023-04-03T08:12:38;20.30;41.70
28959;DHT22;16066;0.000;0.000;2023-04-03T08:15:05;20.20;41.50
28959;DHT22;16066;0.000;0.000;2023-04-03T08:17:30;20.30;41.60
28959;DHT22;16066;0.000;0.000;2023-04-03T08:19:56;20.30;41.60
28959;DHT22;16066;0.000;0.000;2023-04-03T08:22:21;20.30;41.60
28959;DHT22;16066;0.000;0.000;2023-04-03T08:24:47;20.30;41.60
28959;DHT22;16066;0.000;0.000;2023-04-03T08:27:12;20.30;41.70
28959;DHT22;16066;0.000;0.000;2023-04-03T08:29:38;20.30;41.70
28959;DHT22;16066;0.000;0.000;2023-04-03T08:32:05;20.30;41.70
28959;DHT22;16066;0.000;0.000;2023-04-03T08:34:30;20.30;41.80
28959;DHT22;16066;0.000;0.000;2023-04-03T08:37:00;20.30;41.70
28959;DHT22;16066;0.000;0.000;2023-04-03T08:39:26;20.20;41.80
28959;DHT22;16066;0.000;0.000;2023-04-03T08:41:52;20.20;41.60
28959;DHT22;16066;0.000;0.000;2023-04-03T08:47:04;20.10;34.40
28959;DHT22;16066;0.000;0.000;2023-04-03T08:49:41;19.90;31.20
28959;DHT22;16066;0.000;0.000;2023-04-03T08:55:24;19.60;29.20
28959;DHT22;16066;0.000;0.000;2023-04-03T08:58:00;19.40;28.80
28959;DHT22;16066;0.000;0.000;2023-04-03T09:00:30;19.40;31.10
28959;DHT22;16066;0.000;0.000;2023-04-03T09:02:57;19.30;33.40
28959;DHT22;16066;0.000;0.000;2023-04-03T09:19:15;19.60;36.90
28959;DHT22;16066;0.000;0.000;2023-04-03T09:21:42;19.70;37.50
28959;DHT22;16066;0.000;0.000;2023-04-03T09:24:12;19.70;37.80
28959;DHT22;16066;0.000;0.000;2023-04-03T09:26:46;19.80;38.10
28959;DHT22;16066;0.000;0.000;2023-04-03T09:29:22;19.90;38.30
28959;DHT22;16066;0.000;0.000;2023-04-03T09:31:58;19.90;38.60
28959;DHT22;16066;0.000;0.000;2023-04-03T09:34:32;20.00;38.50
28959;DHT22;16066;0.000;0.000;2023-04-03T09:37:02;20.00;38.40
28959;DHT22;16066;0.000;0.000;2023-04-03T09:39:32;20.00;38.50
28959;DHT22;16066;0.000;0.000;2023-04-03T09:42:19;20.00;38.60
28959;DHT22;16066;0.000;0.000;2023-04-03T09:45:03;20.10;38.70
28959;DHT22;16066;0.000;0.000;2023-04-03T09:47:34;20.00;38.70
28959;DHT22;16066;0.000;0.000;2023-04-03T09:50:21;20.10;38.80
28959;DHT22;16066;0.000;0.000;2023-04-03T09:52:49;20.10;38.90
28959;DHT22;16066;0.000;0.000;2023-04-03T09:57:43;20.10;39.00
28959;DHT22;16066;0.000;0.000;2023-04-03T10:00:35;20.10;39.00
28959;DHT22;16066;0.000;0.000;2023-04-03T10:03:02;20.10;39.10
28959;DHT22;16066;0.000;0.000;2023-04-03T10:05:32;20.10;39.10
28959;DHT22;16066;0.000;0.000;2023-04-03T10:10:48;20.10;39.20
28959;DHT22;16066;0.000;0.000;2023-04-03T10:13:20;20.10;39.20
28959;DHT22;16066;0.000;0.000;2023-04-03T10:16:00;20.10;39.30
28959;DHT22;16066;0.000;0.000;2023-04-03T10:18:54;20.10;39.30
28959;DHT22;16066;0.000;0.000;2023-04-03T10:29:42;20.20;39.50
28959;DHT22;16066;0.000;0.000;2023-04-03T10:32:43;20.20;39.50
28959;DHT22;16066;0.000;0.000;2023-04-03T10:38:12;20.20;39.30
28959;DHT22;16066;0.000;0.000;2023-04-03T10:41:07;20.20;39.20
28959;DHT22;16066;0.000;0.000;2023-04-03T10:46:28;20.20;39.40
28959;DHT22;16066;0.000;0.000;2023-04-03T10:51:41;20.20;39.20
28959;DHT22;16066;0.000;0.000;2023-04-03T10:54:16;20.20;39.40
28959;DHT22;16066;0.000;0.000;2023-04-03T10:56:48;20.20;39.60
28959;DHT22;16066;0.000;0.000;2023-04-03T10:59:51;20.20;39.60
28959;DHT22;16066;0.000;0.000;2023-04-03T11:03:00;20.20;39.80
28959;DHT22;16066;0.000;0.000;2023-04-03T11:05:40;20.20;40.10
28959;DHT22;16066;0.000;0.000;2023-04-03T11:10:44;20.30;40.40
28959;DHT22;16066;0.000;0.000;2023-04-03T11:13:52;20.30;40.40
28959;DHT22;16066;0.000;0.000;2023-04-03T11:16:33;20.30;40.40
28959;DHT22;16066;0.000;0.000;2023-04-03T11:19:03;20.30;40.40
28959;DHT22;16066;0.000;0.000;2023-04-03T11:21:37;20.30;40.40
28959;DHT22;16066;0.000;0.000;2023-04-03T11:24:06;20.30;40.50
28959;DHT22;16066;0.000;0.000;2023-04-03T11:26:40;20.30;40.60
28959;DHT22;16066;0.000;0.000;2023-04-03T11:29:11;20.30;40.70
28959;DHT22;16066;0.000;0.000;2023-04-03T11:34:44;20.30;40.60
28959;DHT22;16066;0.000;0.000;2023-04-03T11:40:29;20.30;40.60
28959;DHT22;16066;0.000;0.000;2023-04-03T11:43:04;20.30;40.50
28959;DHT22;16066;0.000;0.000;2023-04-03T11:45:36;20.30;40.40
28959;DHT22;16066;0.000;0.000;2023-04-03T11:48:03;20.30;40.40
28959;DHT22;16066;0.000;0.000;2023-04-03T12:11:23;20.40;40.70
28959;DHT22;16066;0.000;0.000;2023-04-03T12:16:28;20.40;40.80
28959;DHT22;16066;0.000;0.000;2023-04-03T12:18:58;20.40;40.70
28959;DHT22;16066;0.000;0.000;2023-04-03T12:29:24;20.50;40.90
28959;DHT22;16066;0.000;0.000;2023-04-03T12:38:18;20.60;41.30
28959;DHT22;16066;0.000;0.000;2023-04-03T12:41:04;20.60;41.10
28959;DHT22;16066;0.000;0.000;2023-04-03T12:46:33;20.70;40.50
28959;DHT22;16066;0.000;0.000;2023-04-03T12:49:01;20.70;40.80
28959;DHT22;16066;0.000;0.000;2023-04-03T12:51:44;20.80;40.70
28959;DHT22;16066;0.000;0.000;2023-04-03T12:54:20;20.80;40.50
28959;DHT22;16066;0.000;0.000;2023-04-03T12:56:47;20.80;40.40
28959;DHT22;16066;0.000;0.000;2023-04-03T12:59:23;20.80;40.30
28959;DHT22;16066;0.000;0.000;2023-04-03T13:02:00;20.80;40.30
28959;DHT22;16066;0.000;0.000;2023-04-03T13:04:30;20.80;40.20
28959;DHT22;16066;0.000;0.000;2023-04-03T13:06:56;20.90;40.40
28959;DHT22;16066;0.000;0.000;2023-04-03T13:09:30;20.90;40.30
28959;DHT22;16066;0.000;0.000;2023-04-03T13:12:12;20.90;40.20
28959;DHT22;16066;0.000;0.000;2023-04-03T13:14:37;20.90;40.20
28959;DHT22;16066;0.000;0.000;2023-04-03T13:17:10;21.00;40.50
28959;DHT22;16066;0.000;0.000;2023-04-03T13:19:37;21.00;40.30
28959;DHT22;16066;0.000;0.000;2023-04-03T13:22:06;21.00;40.10
28959;DHT22;16066;0.000;0.000;2023-04-03T13:24:36;21.00;40.10
28959;DHT22;16066;0.000;0.000;2023-04-03T13:27:03;21.10;40.20
28959;DHT22;16066;0.000;0.000;2023-04-03T13:29:33;21.10;40.20
28959;DHT22;16066;0.000;0.000;2023-04-03T13:32:00;21.10;40.10
28959;DHT22;16066;0.000;0.000;2023-04-03T13:34:29;21.10;40.30
28959;DHT22;16066;0.000;0.000;2023-04-03T13:36:59;21.10;40.30
28959;DHT22;16066;0.000;0.000;2023-04-03T13:39:29;21.10;40.50
28959;DHT22;16066;0.000;0.000;2023-04-03T13:41:57;21.10;40.60
28959;DHT22;16066;0.000;0.000;2023-04-03T13:44:26;21.20;41.00
28959;DHT22;16066;0.000;0.000;2023-04-03T13:46:53;21.20;41.00
28959;DHT22;16066;0.000;0.000;2023-04-03T13:49:38;21.20;40.90
28959;DHT22;16066;0.000;0.000;2023-04-03T13:52:27;21.30;41.00
28959;DHT22;16066;0.000;0.000;2023-04-03T13:54:56;21.30;41.20
28959;DHT22;16066;0.000;0.000;2023-04-03T13:57:23;21.30;41.30
28959;DHT22;16066;0.000;0.000;2023-04-03T13:59:49;21.30;41.00
28959;DHT22;16066;0.000;0.000;2023-04-03T14:02:21;21.40;41.30
28959;DHT22;16066;0.000;0.000;2023-04-03T14:04:54;21.40;41.30
28959;DHT22;16066;0.000;0.000;2023-04-03T14:07:23;21.40;41.40
28959;DHT22;16066;0.000;0.000;2023-04-03T14:09:49;21.50;41.50
28959;DHT22;16066;0.000;0.000;2023-04-03T14:12:20;21.50;41.50
28959;DHT22;16066;0.000;0.000;2023-04-03T14:14:46;21.50;41.50
28959;DHT22;16066;0.000;0.000;2023-04-03T14:17:30;21.60;42.00
28959;DHT22;16066;0.000;0.000;2023-04-03T14:19:57;21.60;41.20
28959;DHT22;16066;0.000;0.000;2023-04-03T14:22:26;21.70;41.30
28959;DHT22;16066;0.000;0.000;2023-04-03T14:24:53;21.70;41.30
28959;DHT22;16066;0.000;0.000;2023-04-03T14:29:47;21.80;41.10
28959;DHT22;16066;0.000;0.000;2023-04-03T14:32:19;21.80;39.30
28959;DHT22;16066;0.000;0.000;2023-04-03T14:34:45;21.80;39.90
28959;DHT22;16066;0.000;0.000;2023-04-03T14:37:13;21.90;40.10
28959;DHT22;16066;0.000;0.000;2023-04-03T14:39:39;21.90;39.90
28959;DHT22;16066;0.000;0.000;2023-04-03T14:42:05;22.00;40.00
28959;DHT22;16066;0.000;0.000;2023-04-03T14:44:31;22.10;39.70
28959;DHT22;16066;0.000;0.000;2023-04-03T14:46:57;22.30;39.50
28959;DHT22;16066;0.000;0.000;2023-04-03T14:49:26;22.40;39.20
28959;DHT22;16066;0.000;0.000;2023-04-03T14:51:53;22.60;38.60
28959;DHT22;16066;0.000;0.000;2023-04-03T14:54:21;22.80;38.00
28959;DHT22;16066;0.000;0.000;2023-04-03T14:56:51;22.90;37.80
28959;DHT22;16066;0.000;0.000;2023-04-03T14:59:17;23.10;37.90
28959;DHT22;16066;0.000;0.000;2023-04-03T15:01:45;23.10;37.20
28959;DHT22;16066;0.000;0.000;2023-04-03T15:04:15;23.30;38.20
28959;DHT22;16066;0.000;0.000;2023-04-03T15:06:42;23.60;38.00
28959;DHT22;16066;0.000;0.000;2023-04-03T15:09:22;23.70;37.10
28959;DHT22;16066;0.000;0.000;2023-04-03T15:11:50;23.90;37.40
28959;DHT22;16066;0.000;0.000;2023-04-03T15:14:16;24.20;36.20
28959;DHT22;16066;0.000;0.000;2023-04-03T15:16:42;24.40;35.70
28959;DHT22;16066;0.000;0.000;2023-04-03T15:19:08;24.60;33.80
28959;DHT22;16066;0.000;0.000;2023-04-03T15:21:35;24.50;32.70
28959;DHT22;16066;0.000;0.000;2023-04-03T15:24:01;24.50;32.40
28959;DHT22;16066;0.000;0.000;2023-04-03T15:26:27;24.40;32.30
28959;DHT22;16066;0.000;0.000;2023-04-03T15:28:52;24.30;33.30
28959;DHT22;16066;0.000;0.000;2023-04-03T15:31:18;24.40;33.70
28959;DHT22;16066;0.000;0.000;2023-04-03T15:33:43;24.40;33.90
28959;DHT22;16066;0.000;0.000;2023-04-03T15:36:09;24.40;34.10
28959;DHT22;16066;0.000;0.000;2023-04-03T15:38:34;24.40;34.10
28959;DHT22;16066;0.000;0.000;2023-04-03T15:41:00;24.40;34.00
28959;DHT22;16066;0.000;0.000;2023-04-03T15:43:26;24.30;34.00
28959;DHT22;16066;0.000;0.000;2023-04-03T15:45:52;24.30;34.20
28959;DHT22;16066;0.000;0.000;2023-04-03T15:48:17;24.30;34.10
28959;DHT22;16066;0.000;0.000;2023-04-03T15:50:43;24.30;35.20
28959;DHT22;16066;0.000;0.000;2023-04-03T15:53:09;24.30;34.40
28959;DHT22;16066;0.000;0.000;2023-04-03T15:55:36;24.30;34.40
28959;DHT22;16066;0.000;0.000;2023-04-03T15:58:03;24.30;34.40
28959;DHT22;16066;0.000;0.000;2023-04-03T16:00:29;24.20;34.40
28959;DHT22;16066;0.000;0.000;2023-04-03T16:03:00;24.10;34.50
28959;DHT22;16066;0.000;0.000;2023-04-03T16:05:29;23.90;34.70
28959;DHT22;16066;0.000;0.000;2023-04-03T16:07:55;23.80;35.00
28959;DHT22;16066;0.000;0.000;2023-04-03T16:10:22;23.60;35.50
28959;DHT22;16066;0.000;0.000;2023-04-03T16:12:47;23.30;35.60
28959;DHT22;16066;0.000;0.000;2023-04-03T16:15:13;23.10;35.90
28959;DHT22;16066;0.000;0.000;2023-04-03T16:17:40;22.90;36.10
28959;DHT22;16066;0.000;0.000;2023-04-03T16:20:09;22.80;36.40
28959;DHT22;16066;0.000;0.000;2023-04-03T16:22:36;22.60;36.60
28959;DHT22;16066;0.000;0.000;2023-04-03T16:25:03;22.50;36.50
28959;DHT22;16066;0.000;0.000;2023-04-03T16:27:29;22.40;37.50
28959;DHT22;16066;0.000;0.000;2023-04-03T16:29:56;22.30;36.60
28959;DHT22;16066;0.000;0.000;2023-04-03T16:32:23;22.20;37.30
28959;DHT22;16066;0.000;0.000;2023-04-03T16:34:50;22.10;36.90
28959;DHT22;16066;0.000;0.000;2023-04-03T16:37:16;22.00;37.10
28959;DHT22;16066;0.000;0.000;2023-04-03T16:39:42;21.90;37.90
28959;DHT22;16066;0.000;0.000;2023-04-03T16:42:07;21.80;36.50
28959;DHT22;16066;0.000;0.000;2023-04-03T16:44:34;21.80;36.70
28959;DHT22;16066;0.000;0.000;2023-04-03T16:47:00;21.70;37.10
28959;DHT22;16066;0.000;0.000;2023-04-03T16:49:26;21.60;36.90
28959;DHT22;16066;0.000;0.000;2023-04-03T16:51:55;21.60;36.90
28959;DHT22;16066;0.000;0.000;2023-04-03T16:54:21;21.50;37.20
28959;DHT22;16066;0.000;0.000;2023-04-03T16:56:46;21.50;37.50
28959;DHT22;16066;0.000;0.000;2023-04-03T16:59:12;21.50;37.70
28959;DHT22;16066;0.000;0.000;2023-04-03T17:01:37;21.40;37.80
28959;DHT22;16066;0.000;0.000;2023-04-03T17:04:03;21.40;38.00
28959;DHT22;16066;0.000;0.000;2023-04-03T17:06:28;21.40;38.20
28959;DHT22;16066;0.000;0.000;2023-04-03T17:08:54;21.30;38.20
28959;DHT22;16066;0.000;0.000;2023-04-03T17:11:19;21.30;38.30
28959;DHT22;16066;0.000;0.000;2023-04-03T17:13:45;21.30;38.40
28959;DHT22;16066;0.000;0.000;2023-04-03T17:16:14;21.20;38.50
28959;DHT22;16066;0.000;0.000;2023-04-03T17:18:40;21.20;38.60
28959;DHT22;16066;0.000;0.000;2023-04-03T17:21:06;21.10;38.60
28959;DHT22;16066;0.000;0.000;2023-04-03T17:23:33;21.10;38.70
28959;DHT22;16066;0.000;0.000;2023-04-03T17:26:00;21.10;38.70
28959;DHT22;16066;0.000;0.000;2023-04-03T17:28:26;21.00;38.70
28959;DHT22;16066;0.000;0.000;2023-04-03T17:30:55;21.00;39.50